In Rescue
 
Open Full Screen Window  High Contrast Mode
Wind Gusting 00 knots
08
May 20, 2019 1:27 PM CDT
Weather Information
Wind Direction
  050 °
Wind Speed
  08 kt (9 mph)
Wind Gust
  00 kt (0 mph)
Variable Wind
010°
070°
Altimeter
30.14 in
Visibility
10 SM
Temperature
12° C
54° F
Dewpoint
04° C
39° F
Humidity
58%
1hr Rain Fall
00.00 in.
24hr Rain Fall
00.00 in.
Sky Condition
Scattered @ 3,900 ft
VFR

METAR KFKA 201827Z AUTO 05008KT 010V070 10SM SCT039 12/04 A3014 RMK AO2 T01180038

FAA Disclaimer: The data displayed is for advisory purposes only and is not to be used for flight planning or operations.